• Join FlightAware (Why Join?)
  • Login
  • US Flag 
09:51PM EDT


 

Airport Tracker/Info


-or-


 

Live Flight TrackerFlight Track Log ✈ N143DE ✈ 04-Jul-2013 ✈ KRYY - MYAM / MHH

Flight Track Log - Related Links

Times and Time Zones

All times are in EDT time to prevent confusion due to time zone crossing. See the N143DE flight status page for this flight to view local times or setup timezone preferences in your user account.

Time Position Orientation Groundspeed Altitude Reporting Facility
EDT Latitude Longitude Course Direction KTS MPH feet Rate Location/Type
09:45AM 34.0000 -84.5167 157° South 155 178 3,700  Level Atlanta TRACON
09:46AM 33.9667 -84.5000 157° South 170 196 4,400 600 Climbing Atlanta TRACON
09:47AM 33.9167 -84.4833 165° South 181 208 5,000 300 Climbing Atlanta TRACON
09:48AM 33.8667 -84.4667 165° South 188 216 5,000  Level Atlanta TRACON
09:49AM 33.8167 -84.4667 180° South 188 216 5,000  Level Atlanta TRACON
09:50AM 33.7500 -84.4667 180° South 190 219 5,000  Level Atlanta TRACON
09:51AM 33.7000 -84.4833 195° South 188 216 5,000  Level Atlanta TRACON
09:52AM 33.6500 -84.4833 180° South 187 215 5,000 120 Level Atlanta TRACON
09:53AM 33.6000 -84.4833 180° South 179 206 5,300 360 Climbing Atlanta TRACON
09:54AM 33.5500 -84.4667 164° South 172 198 5,800 300 Climbing Atlanta TRACON
09:55AM 33.5167 -84.4500 157° South 174 200 6,000 60 Climbing Atlanta TRACON
09:56AM 33.4667 -84.4333 164° South 187 215 6,000 360 Level Atlanta TRACON
09:57AM 33.3972 -84.4019 159° South 191 220 6,900 720 Climbing Atlanta Center
09:58AM 33.3472 -84.3719 164° South 191 220 7,800 900 Climbing Atlanta Center
09:59AM 33.3033 -84.3222 137° Southeast 196 226 8,700 900 Climbing Atlanta Center
10:00AM 33.2617 -84.2797 140° Southeast 202 232 9,600 900 Climbing Atlanta Center
10:01AM 33.2181 -84.2325 138° Southeast 208 239 10,500 900 Climbing Atlanta Center
10:02AM 33.1764 -84.1903 140° Southeast 213 245 11,400 900 Climbing Atlanta Center
10:03AM 33.1325 -84.1456 140° Southeast 208 239 12,300 900 Climbing Atlanta Center
10:04AM 33.0886 -84.1008 140° Southeast 208 239 13,200 900 Climbing Atlanta Center
10:05AM 33.0511 -84.0586 137° Southeast 208 239 14,200 900 Climbing Atlanta Center
10:06AM 33.0094 -84.0142 138° Southeast 208 239 15,000 720 Climbing Atlanta Center
10:07AM 32.9678 -83.9694 138° Southeast 208 239 15,700 480 Climbing Atlanta Center
10:08AM 32.9239 -83.9275 141° Southeast 208 239 16,000 180 Climbing Atlanta Center
10:09AM 32.8758 -83.8806 141° Southeast 213 245 16,100 420 Climbing Atlanta Center
10:10AM 32.8297 -83.8311 138° Southeast 218 251 16,900 720 Climbing Atlanta Center
10:11AM 32.7878 -83.7892 140° Southeast 213 245 17,600 600 Climbing Atlanta Center
10:12AM 32.7481 -83.7400 134° Southeast 207 238 18,200 660 Climbing Atlanta Center
10:13AM 32.7064 -83.7031 143° Southeast 207 238 19,000 720 Climbing Atlanta Center
10:14AM 32.6664 -83.6589 137° Southeast 202 232 19,700 660 Climbing Atlanta Center
10:15AM 32.6247 -83.6219 143° Southeast 197 227 20,400 600 Climbing Atlanta Center
10:16AM 32.5869 -83.5778 135° Southeast 190 219 21,000 600 Climbing Atlanta Center
10:17AM 32.5450 -83.5361 140° Southeast 190 219 21,600 540 Climbing Atlanta Center
10:18AM 32.5053 -83.4944 138° Southeast 190 219 22,100 540 Climbing Atlanta Center
10:19AM 32.4675 -83.4553 139° Southeast 185 213 22,700 600 Climbing Atlanta Center
10:20AM 32.4256 -83.4139 140° Southeast 185 213 23,300 540 Climbing Atlanta Center
10:21AM 32.3856 -83.3747 140° Southeast 185 213 23,800 240 Climbing Atlanta Center
10:23AM 32.3267 -83.3131 138° Southeast 184 212 24,000 60 Climbing Jacksonville Center
10:24AM 32.2808 -83.2661 139° Southeast 198 228 24,000  Level Jacksonville Center
10:25AM 32.2350 -83.2167 138° Southeast 211 243 24,000  Level Jacksonville Center
10:26AM 32.1872 -83.1700 140° Southeast 221 254 24,000  Level Jacksonville Center
10:27AM 32.1372 -83.1158 137° Southeast 226 260 24,000  Level Jacksonville Center
10:28AM 32.0869 -83.0667 140° Southeast 231 266 24,000  Level Jacksonville Center
10:29AM 32.0369 -83.0175 140° Southeast 231 266 24,000  Level Jacksonville Center
10:30AM 31.9869 -82.9661 139° Southeast 231 266 24,000  Level Jacksonville Center
10:31AM 31.9369 -82.9147 139° Southeast 231 266 24,000  Level Jacksonville Center
10:32AM 31.8889 -82.8656 139° Southeast 231 266 24,000  Level Jacksonville Center
10:33AM 31.8386 -82.8142 139° Southeast 231 266 24,000  Level Jacksonville Center
10:34AM 31.7886 -82.7631 139° Southeast 236 272 24,000  Level Jacksonville Center
10:35AM 31.7383 -82.7142 140° Southeast 236 272 24,000  Level Jacksonville Center
10:36AM 31.6903 -82.6631 138° Southeast 236 272 24,000  Level Jacksonville Center
10:37AM 31.6400 -82.6119 139° Southeast 236 272 24,000  Level Jacksonville Center
10:38AM 31.5897 -82.5633 141° Southeast 236 272 24,000  Level Jacksonville Center
10:39AM 31.5397 -82.5122 139° Southeast 236 272 24,000  Level Jacksonville Center
10:40AM 31.4853 -82.4661 144° Southeast 236 272 24,000  Level Jacksonville Center
10:41AM 31.4328 -82.4225 145° Southeast 236 272 24,000  Level Jacksonville Center
10:42AM 31.3806 -82.3792 145° Southeast 236 272 24,000  Level Jacksonville Center
10:43AM 31.3303 -82.3406 147° Southeast 242 278 24,000  Level Jacksonville Center
10:44AM 31.2778 -82.2947 143° Southeast 242 278 24,000  Level Jacksonville Center
10:45AM 31.2253 -82.2511 145° Southeast 242 278 24,000  Level Jacksonville Center
10:46AM 31.1708 -82.2056 144° Southeast 242 278 24,000  Level Jacksonville Center
10:47AM 31.1183 -82.1644 146° Southeast 242 278 24,000  Level Jacksonville Center
10:48AM 31.0658 -82.1189 143° Southeast 242 278 24,000  Level Jacksonville Center
10:49AM 31.0133 -82.0733 143° Southeast 242 278 24,000  Level Jacksonville Center
10:50AM 30.9589 -82.0300 146° Southeast 242 278 24,000  Level Jacksonville Center
10:51AM 30.9064 -81.9847 143° Southeast 242 278 24,000  Level Jacksonville Center
10:52AM 30.8558 -81.9414 144° Southeast 242 278 24,000  Level Jacksonville Center
10:53AM 30.8014 -81.8961 144° Southeast 242 278 24,000  Level Jacksonville Center
10:54AM 30.7489 -81.8531 145° Southeast 242 278 24,000  Level Jacksonville Center
10:55AM 30.6961 -81.8103 145° Southeast 242 278 24,000  Level Jacksonville Center
10:56AM 30.6436 -81.7650 143° Southeast 242 278 24,000  Level Jacksonville Center
10:57AM 30.5911 -81.7222 145° Southeast 242 278 24,000  Level Jacksonville Center
10:58AM 30.5364 -81.6794 146° Southeast 242 278 24,000  Level Jacksonville Center
10:59AM 30.4858 -81.6342 142° Southeast 242 278 24,000  Level Jacksonville Center
11:00AM 30.4331 -81.5917 145° Southeast 242 278 24,000  Level Jacksonville Center
11:01AM 30.3806 -81.5489 145° Southeast 242 278 24,000  Level Jacksonville Center
11:02AM 30.3278 -81.5064 145° Southeast 242 278 24,000  Level Jacksonville Center
11:03AM 30.2650 -81.4856 164° South 235 270 24,000  Level Jacksonville Center
11:04AM 30.2042 -81.4625 162° South 235 270 24,000  Level Jacksonville Center
11:05AM 30.1414 -81.4369 161° South 235 270 24,000  Level Jacksonville Center
11:06AM 30.0783 -81.4117 161° South 235 270 24,000  Level Jacksonville Center
11:07AM 30.0175 -81.3908 163° South 235 270 24,000  Level Jacksonville Center
11:08AM 29.9483 -81.3631 161° South 235 270 24,000  Level Jacksonville Center
11:09AM 29.9019 -81.3136 137° Southeast 230 265 24,000  Level Jacksonville Center
11:10AM 29.8614 -81.2567 129° Southeast 230 265 24,000  Level Jacksonville Center
11:11AM 29.8189 -81.2000 131° Southeast 230 265 24,000  Level Jacksonville Center
11:12AM 29.7764 -81.1433 131° Southeast 236 272 24,000  Level Jacksonville Center
11:13AM 29.7297 -81.0869 134° Southeast 236 272 24,000  Level Jacksonville Center
11:14AM 29.6872 -81.0303 131° Southeast 236 272 24,000  Level Jacksonville Center
11:15AM 29.6467 -80.9736 129° Southeast 236 272 24,000  Level Jacksonville Center
11:16AM 29.6000 -80.9197 135° Southeast 236 272 24,000  Level Jacksonville Center
11:17AM 29.5572 -80.8583 129° Southeast 236 272 24,000  Level Jacksonville Center
11:20AM 29.4281 -80.6964 132° Southeast 238 274 24,000  Level Miami Center
11:21AM 29.3836 -80.6403 132° Southeast 238 274 24,000  Level Miami Center
11:22AM 29.3392 -80.5839 132° Southeast 238 274 24,000  Level Miami Center
11:23AM 29.2969 -80.5253 130° Southeast 221 254 24,000  Level Miami Center
11:24AM 29.2525 -80.4667 131° Southeast 221 254 24,000  Level Miami Center
11:25AM 29.2081 -80.4153 135° Southeast 226 260 24,000  Level Miami Center
11:26AM 29.1656 -80.3569 130° Southeast 221 254 24,000  Level Miami Center
11:27AM 29.1211 -80.3008 132° Southeast 226 260 24,000  Level Miami Center
11:28AM 29.0744 -80.2400 131° Southeast 226 260 24,000  Level Miami Center
11:29AM 29.0319 -80.1867 132° Southeast 226 260 24,000  Level Miami Center
11:30AM 28.9875 -80.1283 131° Southeast 221 254 24,000  Level Miami Center
11:31AM 28.9428 -80.0725 132° Southeast 221 254 24,000  Level Miami Center
11:32AM 28.8981 -80.0167 132° Southeast 221 254 24,000  Level Miami Center
11:33AM 28.8494 -79.9561 132° Southeast 228 262 24,000  Level Miami Center
11:34AM 28.8069 -79.8981 130° Southeast 228 262 24,000  Level Miami Center
11:35AM 28.7600 -79.8422 134° Southeast 228 262 24,000  Level Miami Center
11:36AM 28.7175 -79.7867 131° Southeast 234 269 24,000  Level Miami Center
11:37AM 28.6728 -79.7286 131° Southeast 234 269 24,000  Level Miami Center
11:38AM 28.6278 -79.6731 133° Southeast 234 269 24,000  Level Miami Center
11:39AM 28.5831 -79.6153 131° Southeast 239 275 24,000  Level Miami Center
11:40AM 28.5381 -79.5622 134° Southeast 239 275 24,000  Level Miami Center
11:41AM 28.4953 -79.5044 130° Southeast 239 275 24,100  Climbing Miami Center
11:42AM 28.4483 -79.4514 135° Southeast 239 275 24,000  Descending Miami Center
11:43AM 28.4056 -79.3961 131° Southeast 239 275 24,100  Climbing Miami Center
11:44AM 28.3628 -79.3386 130° Southeast 239 275 24,100  Level Miami Center
11:45AM 28.3178 -79.2833 133° Southeast 239 275 24,100  Level Miami Center
11:46AM 28.2706 -79.2281 134° Southeast 239 275 24,100  Level Miami Center
11:47AM 28.2256 -79.1731 133° Southeast 239 275 24,100  Level Miami Center
11:48AM 28.1847 -79.1178 130° Southeast 239 275 24,100  Level Miami Center
11:49AM 28.1375 -79.0628 134° Southeast 239 275 24,100  Level Miami Center
11:50AM 28.0967 -79.0078 130° Southeast 234 269 24,100 -60 Level Miami Center
11:51AM 28.0494 -78.9528 134° Southeast 234 269 24,000 -420 Descending Miami Center
11:52AM 28.0064 -78.8956 130° Southeast 234 269 23,300 -720 Descending Miami Center
11:53AM 27.9550 -78.8358 134° Southeast 244 281 22,600 -780 Descending Miami Center
11:54AM 27.8994 -78.7761 136° Southeast 249 287 21,800 -840 Descending Miami Center
11:55AM 27.8564 -78.7122 127° Southeast 257 296 21,000 -840 Descending Miami Center
11:56AM 27.8050 -78.6503 133° Southeast 262 302 20,200 -900 Descending Miami Center
11:57AM 27.7558 -78.5883 132° Southeast 267 307 19,200 -960 Descending Miami Center
11:58AM 27.7042 -78.5242 132° Southeast 273 314 18,300 -780 Descending Miami Center
11:59AM 27.6547 -78.4625 132° Southeast 273 314 17,700 -660 Descending Miami Center
12:00PM 27.6033 -78.4008 133° Southeast 268 308 17,000 -360 Descending Miami Center
12:01PM 27.5475 -78.3464 139° Southeast 268 308 17,000  Level Miami Center
12:02PM 27.5083 -78.2872 127° Southeast 252 290 17,000  Level Miami Center
12:03PM 27.4672 -78.2328 130° Southeast 247 284 17,000  Level Miami Center
12:04PM 27.4217 -78.1808 135° Southeast 242 278 17,000  Level Miami Center
12:05PM 27.3764 -78.1242 132° Southeast 242 278 17,000  Level Miami Center
12:06PM 27.3308 -78.0769 137° Southeast 242 278 17,000  Level Miami Center
12:07PM 27.2894 -78.0158 127° Southeast 242 278 17,000  Level Miami Center
12:08PM 27.2439 -77.9617 133° Southeast 242 278 17,000 -480 Level Miami Center
12:09PM 27.1942 -77.9119 138° Southeast 230 265 16,100 -1,200 Descending Miami Center
12:10PM 27.1422 -77.8531 135° Southeast 243 280 14,700 -1,260 Descending Miami Center
12:11PM 27.0947 -77.7875 129° Southeast 264 304 13,600 -1,200 Descending Miami Center
12:12PM 27.0428 -77.7286 135° Southeast 264 304 12,300 -1,380 Descending Miami Center
12:13PM 26.9931 -77.6678 133° Southeast 258 297 10,900 -1,200 Descending Miami Center
12:14PM 26.9433 -77.6092 134° Southeast 241 277 9,900 -1,320 Descending Miami Center
12:15PM 26.9039 -77.5575 131° Southeast 241 277 8,300 -1,440 Descending Miami Center
12:16PM 26.8581 -77.5014 132° Southeast 241 277 7,100 -660 Descending Miami Center
12:17PM 26.8167 -77.4547 135° Southeast 235 270 7,000 -60 Descending Miami Center
12:18PM 26.7811 -77.4150 135° Southeast 203 234 7,000  Level Miami Center
12:19PM 26.7394 -77.3728 138° Southeast 191 220 7,000  Level Miami Center